sensor_id;sensor_type;location;lat;lon;timestamp;P1;durP1;ratioP1;P2;durP2;ratioP2
75772;SDS011;64381;0.000;0.000;2023-06-10T00:00:45;3.20;;;1.80;;
75772;SDS011;64381;0.000;0.000;2023-06-10T00:03:11;4.03;;;2.00;;
75772;SDS011;64381;0.000;0.000;2023-06-10T00:05:36;3.70;;;2.03;;
75772;SDS011;64381;0.000;0.000;2023-06-10T00:08:01;3.53;;;2.00;;
75772;SDS011;64381;0.000;0.000;2023-06-10T00:10:27;3.35;;;1.90;;
75772;SDS011;64381;0.000;0.000;2023-06-10T00:12:52;3.30;;;1.80;;
75772;SDS011;64381;0.000;0.000;2023-06-10T00:15:17;3.40;;;1.93;;
75772;SDS011;64381;0.000;0.000;2023-06-10T00:17:43;3.77;;;2.00;;
75772;SDS011;64381;0.000;0.000;2023-06-10T00:20:08;3.60;;;1.87;;
75772;SDS011;64381;0.000;0.000;2023-06-10T00:22:34;3.53;;;2.00;;
75772;SDS011;64381;0.000;0.000;2023-06-10T00:25:00;3.30;;;1.87;;
75772;SDS011;64381;0.000;0.000;2023-06-10T00:27:25;3.90;;;2.10;;
75772;SDS011;64381;0.000;0.000;2023-06-10T00:29:50;3.43;;;1.90;;
75772;SDS011;64381;0.000;0.000;2023-06-10T00:32:15;3.47;;;2.00;;
75772;SDS011;64381;0.000;0.000;2023-06-10T00:34:41;3.90;;;2.10;;
75772;SDS011;64381;0.000;0.000;2023-06-10T00:37:06;3.33;;;2.00;;
75772;SDS011;64381;0.000;0.000;2023-06-10T00:39:31;3.43;;;1.90;;
75772;SDS011;64381;0.000;0.000;2023-06-10T00:41:56;3.40;;;1.83;;
75772;SDS011;64381;0.000;0.000;2023-06-10T00:44:21;3.40;;;1.80;;
75772;SDS011;64381;0.000;0.000;2023-06-10T00:46:47;3.20;;;1.80;;
75772;SDS011;64381;0.000;0.000;2023-06-10T00:49:12;3.57;;;2.00;;
75772;SDS011;64381;0.000;0.000;2023-06-10T00:51:37;3.40;;;2.00;;
75772;SDS011;64381;0.000;0.000;2023-06-10T00:54:03;3.40;;;1.80;;
75772;SDS011;64381;0.000;0.000;2023-06-10T00:56:29;3.70;;;2.20;;
75772;SDS011;64381;0.000;0.000;2023-06-10T00:58:54;3.80;;;2.20;;
75772;SDS011;64381;0.000;0.000;2023-06-10T01:01:20;3.40;;;1.90;;
75772;SDS011;64381;0.000;0.000;2023-06-10T01:03:45;3.80;;;2.03;;
75772;SDS011;64381;0.000;0.000;2023-06-10T01:08:57;3.40;;;1.90;;
75772;SDS011;64381;0.000;0.000;2023-06-10T01:11:35;3.45;;;2.00;;
75772;SDS011;64381;0.000;0.000;2023-06-10T01:14:05;3.70;;;2.00;;
75772;SDS011;64381;0.000;0.000;2023-06-10T01:16:32;3.20;;;1.70;;
75772;SDS011;64381;0.000;0.000;2023-06-10T01:18:57;3.70;;;1.93;;
75772;SDS011;64381;0.000;0.000;2023-06-10T01:21:22;3.30;;;1.67;;
75772;SDS011;64381;0.000;0.000;2023-06-10T01:23:48;3.50;;;2.03;;
75772;SDS011;64381;0.000;0.000;2023-06-10T01:26:13;3.50;;;1.87;;
75772;SDS011;64381;0.000;0.000;2023-06-10T01:28:47;3.40;;;1.90;;
75772;SDS011;64381;0.000;0.000;2023-06-10T01:31:30;3.60;;;2.10;;
75772;SDS011;64381;0.000;0.000;2023-06-10T01:34:02;3.60;;;1.95;;
75772;SDS011;64381;0.000;0.000;2023-06-10T01:36:29;3.58;;;2.10;;
75772;SDS011;64381;0.000;0.000;2023-06-10T01:38:56;4.10;;;2.20;;
75772;SDS011;64381;0.000;0.000;2023-06-10T01:41:24;3.80;;;2.10;;
75772;SDS011;64381;0.000;0.000;2023-06-10T01:43:49;3.50;;;2.05;;
75772;SDS011;64381;0.000;0.000;2023-06-10T01:46:15;4.23;;;2.40;;
75772;SDS011;64381;0.000;0.000;2023-06-10T01:48:41;3.70;;;2.20;;
75772;SDS011;64381;0.000;0.000;2023-06-10T01:51:07;3.60;;;1.92;;
75772;SDS011;64381;0.000;0.000;2023-06-10T01:53:32;3.80;;;2.00;;
75772;SDS011;64381;0.000;0.000;2023-06-10T01:55:57;3.70;;;1.80;;
75772;SDS011;64381;0.000;0.000;2023-06-10T01:58:22;3.93;;;2.13;;
75772;SDS011;64381;0.000;0.000;2023-06-10T02:00:48;3.63;;;2.07;;
75772;SDS011;64381;0.000;0.000;2023-06-10T02:03:13;3.50;;;2.10;;
75772;SDS011;64381;0.000;0.000;2023-06-10T02:05:38;3.50;;;1.90;;
75772;SDS011;64381;0.000;0.000;2023-06-10T02:08:04;4.00;;;2.20;;
75772;SDS011;64381;0.000;0.000;2023-06-10T02:10:29;3.70;;;2.20;;
75772;SDS011;64381;0.000;0.000;2023-06-10T02:12:55;3.57;;;1.97;;
75772;SDS011;64381;0.000;0.000;2023-06-10T02:15:20;3.27;;;1.90;;
75772;SDS011;64381;0.000;0.000;2023-06-10T02:17:45;3.40;;;1.83;;
75772;SDS011;64381;0.000;0.000;2023-06-10T02:20:10;3.50;;;2.00;;
75772;SDS011;64381;0.000;0.000;2023-06-10T02:22:36;3.83;;;2.20;;
75772;SDS011;64381;0.000;0.000;2023-06-10T02:25:02;4.13;;;2.10;;
75772;SDS011;64381;0.000;0.000;2023-06-10T02:27:28;3.60;;;2.03;;
75772;SDS011;64381;0.000;0.000;2023-06-10T02:29:53;3.67;;;2.00;;
75772;SDS011;64381;0.000;0.000;2023-06-10T02:32:18;3.53;;;2.10;;
75772;SDS011;64381;0.000;0.000;2023-06-10T02:34:43;3.87;;;2.17;;
75772;SDS011;64381;0.000;0.000;2023-06-10T02:37:09;3.50;;;2.00;;
75772;SDS011;64381;0.000;0.000;2023-06-10T02:39:34;3.70;;;2.00;;
75772;SDS011;64381;0.000;0.000;2023-06-10T02:41:59;4.40;;;2.10;;
75772;SDS011;64381;0.000;0.000;2023-06-10T02:44:25;3.87;;;2.10;;
75772;SDS011;64381;0.000;0.000;2023-06-10T02:46:50;3.60;;;2.10;;
75772;SDS011;64381;0.000;0.000;2023-06-10T02:49:15;3.70;;;2.10;;
75772;SDS011;64381;0.000;0.000;2023-06-10T02:51:40;3.33;;;2.00;;
75772;SDS011;64381;0.000;0.000;2023-06-10T02:54:06;3.63;;;2.20;;
75772;SDS011;64381;0.000;0.000;2023-06-10T02:56:31;3.80;;;2.17;;
75772;SDS011;64381;0.000;0.000;2023-06-10T02:58:56;3.63;;;2.10;;
75772;SDS011;64381;0.000;0.000;2023-06-10T03:01:21;3.50;;;2.10;;
75772;SDS011;64381;0.000;0.000;2023-06-10T03:03:46;3.85;;;2.00;;
75772;SDS011;64381;0.000;0.000;2023-06-10T03:06:12;3.73;;;2.00;;
75772;SDS011;64381;0.000;0.000;2023-06-10T03:08:38;3.53;;;2.23;;
75772;SDS011;64381;0.000;0.000;2023-06-10T03:11:04;3.67;;;2.00;;
75772;SDS011;64381;0.000;0.000;2023-06-10T03:13:29;3.40;;;1.83;;
75772;SDS011;64381;0.000;0.000;2023-06-10T03:15:55;3.87;;;2.20;;
75772;SDS011;64381;0.000;0.000;2023-06-10T03:18:20;3.57;;;1.93;;
75772;SDS011;64381;0.000;0.000;2023-06-10T03:20:45;3.60;;;1.93;;
75772;SDS011;64381;0.000;0.000;2023-06-10T03:23:10;3.50;;;1.97;;
75772;SDS011;64381;0.000;0.000;2023-06-10T03:25:36;3.73;;;2.17;;
75772;SDS011;64381;0.000;0.000;2023-06-10T03:28:01;3.80;;;2.40;;
75772;SDS011;64381;0.000;0.000;2023-06-10T03:30:27;3.57;;;2.20;;
75772;SDS011;64381;0.000;0.000;2023-06-10T03:32:53;3.72;;;2.30;;
75772;SDS011;64381;0.000;0.000;2023-06-10T03:35:18;3.47;;;2.00;;
75772;SDS011;64381;0.000;0.000;2023-06-10T03:37:44;4.37;;;1.90;;
75772;SDS011;64381;0.000;0.000;2023-06-10T03:40:09;3.50;;;2.00;;
75772;SDS011;64381;0.000;0.000;2023-06-10T03:42:35;3.50;;;2.20;;
75772;SDS011;64381;0.000;0.000;2023-06-10T03:45:00;3.90;;;2.20;;
75772;SDS011;64381;0.000;0.000;2023-06-10T03:47:25;3.97;;;2.20;;
75772;SDS011;64381;0.000;0.000;2023-06-10T03:49:51;3.60;;;1.90;;
75772;SDS011;64381;0.000;0.000;2023-06-10T03:52:17;3.70;;;2.00;;
75772;SDS011;64381;0.000;0.000;2023-06-10T03:54:42;3.97;;;2.27;;
75772;SDS011;64381;0.000;0.000;2023-06-10T03:57:07;4.27;;;2.07;;
75772;SDS011;64381;0.000;0.000;2023-06-10T03:59:32;3.70;;;2.10;;
75772;SDS011;64381;0.000;0.000;2023-06-10T04:01:58;3.47;;;2.03;;
75772;SDS011;64381;0.000;0.000;2023-06-10T04:04:23;4.00;;;2.10;;
75772;SDS011;64381;0.000;0.000;2023-06-10T04:06:48;3.40;;;2.00;;
75772;SDS011;64381;0.000;0.000;2023-06-10T04:09:13;3.70;;;2.10;;
75772;SDS011;64381;0.000;0.000;2023-06-10T04:11:39;3.80;;;2.33;;
75772;SDS011;64381;0.000;0.000;2023-06-10T04:14:04;3.80;;;2.20;;
75772;SDS011;64381;0.000;0.000;2023-06-10T04:16:29;3.40;;;1.90;;
75772;SDS011;64381;0.000;0.000;2023-06-10T04:18:54;3.83;;;2.23;;
75772;SDS011;64381;0.000;0.000;2023-06-10T04:21:20;3.90;;;2.10;;
75772;SDS011;64381;0.000;0.000;2023-06-10T04:23:45;3.70;;;2.30;;
75772;SDS011;64381;0.000;0.000;2023-06-10T04:26:10;3.47;;;1.87;;
75772;SDS011;64381;0.000;0.000;2023-06-10T04:28:35;3.43;;;2.10;;
75772;SDS011;64381;0.000;0.000;2023-06-10T04:31:00;3.90;;;2.27;;
75772;SDS011;64381;0.000;0.000;2023-06-10T04:33:26;3.67;;;1.93;;
75772;SDS011;64381;0.000;0.000;2023-06-10T04:35:51;3.73;;;2.27;;
75772;SDS011;64381;0.000;0.000;2023-06-10T04:38:16;3.70;;;2.10;;
75772;SDS011;64381;0.000;0.000;2023-06-10T04:40:41;3.60;;;2.00;;
75772;SDS011;64381;0.000;0.000;2023-06-10T04:43:06;3.70;;;2.10;;
75772;SDS011;64381;0.000;0.000;2023-06-10T04:45:32;3.90;;;2.10;;
75772;SDS011;64381;0.000;0.000;2023-06-10T04:47:57;3.80;;;2.23;;
75772;SDS011;64381;0.000;0.000;2023-06-10T04:50:22;3.53;;;2.00;;
75772;SDS011;64381;0.000;0.000;2023-06-10T04:52:47;3.80;;;2.20;;
75772;SDS011;64381;0.000;0.000;2023-06-10T04:55:12;3.53;;;2.10;;
75772;SDS011;64381;0.000;0.000;2023-06-10T04:57:38;3.90;;;2.30;;
75772;SDS011;64381;0.000;0.000;2023-06-10T05:00:03;4.07;;;2.17;;
75772;SDS011;64381;0.000;0.000;2023-06-10T05:02:29;3.77;;;2.30;;
75772;SDS011;64381;0.000;0.000;2023-06-10T05:04:54;3.47;;;2.20;;
75772;SDS011;64381;0.000;0.000;2023-06-10T05:07:19;3.87;;;2.27;;
75772;SDS011;64381;0.000;0.000;2023-06-10T05:09:44;3.50;;;2.10;;
75772;SDS011;64381;0.000;0.000;2023-06-10T05:12:09;3.90;;;2.30;;
75772;SDS011;64381;0.000;0.000;2023-06-10T05:14:35;3.50;;;2.20;;
75772;SDS011;64381;0.000;0.000;2023-06-10T05:17:00;3.83;;;2.33;;
75772;SDS011;64381;0.000;0.000;2023-06-10T05:19:25;3.80;;;2.17;;
75772;SDS011;64381;0.000;0.000;2023-06-10T05:21:50;3.83;;;2.10;;
75772;SDS011;64381;0.000;0.000;2023-06-10T05:24:16;3.40;;;2.10;;
75772;SDS011;64381;0.000;0.000;2023-06-10T05:26:41;3.80;;;2.07;;
75772;SDS011;64381;0.000;0.000;2023-06-10T05:29:07;3.97;;;2.37;;
75772;SDS011;64381;0.000;0.000;2023-06-10T05:31:32;4.07;;;2.35;;
75772;SDS011;64381;0.000;0.000;2023-06-10T05:33:58;3.57;;;2.00;;
75772;SDS011;64381;0.000;0.000;2023-06-10T05:36:23;3.90;;;2.30;;
75772;SDS011;64381;0.000;0.000;2023-06-10T05:38:48;3.87;;;2.20;;
75772;SDS011;64381;0.000;0.000;2023-06-10T05:41:13;3.40;;;2.10;;
75772;SDS011;64381;0.000;0.000;2023-06-10T05:43:38;3.33;;;2.00;;
75772;SDS011;64381;0.000;0.000;2023-06-10T05:46:04;3.70;;;2.10;;
75772;SDS011;64381;0.000;0.000;2023-06-10T05:48:29;3.40;;;2.10;;
75772;SDS011;64381;0.000;0.000;2023-06-10T05:50:54;3.77;;;2.20;;
75772;SDS011;64381;0.000;0.000;2023-06-10T05:53:19;3.50;;;2.20;;
75772;SDS011;64381;0.000;0.000;2023-06-10T05:55:45;3.50;;;2.10;;
75772;SDS011;64381;0.000;0.000;2023-06-10T05:58:11;3.70;;;2.27;;
75772;SDS011;64381;0.000;0.000;2023-06-10T06:00:37;3.67;;;2.22;;
75772;SDS011;64381;0.000;0.000;2023-06-10T06:03:03;3.75;;;2.20;;
75772;SDS011;64381;0.000;0.000;2023-06-10T06:05:28;3.60;;;2.30;;
75772;SDS011;64381;0.000;0.000;2023-06-10T06:07:53;3.90;;;2.30;;
75772;SDS011;64381;0.000;0.000;2023-06-10T06:10:18;4.17;;;2.07;;
75772;SDS011;64381;0.000;0.000;2023-06-10T06:12:44;3.70;;;2.20;;
75772;SDS011;64381;0.000;0.000;2023-06-10T06:15:10;3.67;;;2.10;;
75772;SDS011;64381;0.000;0.000;2023-06-10T06:17:35;3.97;;;2.42;;
75772;SDS011;64381;0.000;0.000;2023-06-10T06:20:01;3.77;;;2.30;;
75772;SDS011;64381;0.000;0.000;2023-06-10T06:22:27;3.72;;;2.13;;
75772;SDS011;64381;0.000;0.000;2023-06-10T06:24:52;3.73;;;2.20;;
75772;SDS011;64381;0.000;0.000;2023-06-10T06:27:18;3.77;;;2.13;;
75772;SDS011;64381;0.000;0.000;2023-06-10T06:29:43;4.00;;;2.20;;
75772;SDS011;64381;0.000;0.000;2023-06-10T06:32:08;3.70;;;2.20;;
75772;SDS011;64381;0.000;0.000;2023-06-10T06:34:33;3.40;;;2.10;;
75772;SDS011;64381;0.000;0.000;2023-06-10T06:36:58;4.20;;;2.50;;
75772;SDS011;64381;0.000;0.000;2023-06-10T06:39:24;3.97;;;2.20;;
75772;SDS011;64381;0.000;0.000;2023-06-10T06:41:49;3.60;;;2.20;;
75772;SDS011;64381;0.000;0.000;2023-06-10T06:44:14;3.50;;;2.10;;
75772;SDS011;64381;0.000;0.000;2023-06-10T06:46:39;3.70;;;2.17;;
75772;SDS011;64381;0.000;0.000;2023-06-10T06:49:04;3.60;;;1.97;;
75772;SDS011;64381;0.000;0.000;2023-06-10T06:51:30;3.70;;;2.17;;
75772;SDS011;64381;0.000;0.000;2023-06-10T06:53:55;3.70;;;2.17;;
75772;SDS011;64381;0.000;0.000;2023-06-10T06:56:20;3.97;;;2.50;;
75772;SDS011;64381;0.000;0.000;2023-06-10T06:58:45;3.57;;;2.20;;
75772;SDS011;64381;0.000;0.000;2023-06-10T07:01:10;3.60;;;2.10;;
75772;SDS011;64381;0.000;0.000;2023-06-10T07:03:36;3.50;;;2.10;;
75772;SDS011;64381;0.000;0.000;2023-06-10T07:06:01;3.60;;;2.00;;
75772;SDS011;64381;0.000;0.000;2023-06-10T07:08:26;4.20;;;2.40;;
75772;SDS011;64381;0.000;0.000;2023-06-10T07:10:51;3.70;;;2.10;;
75772;SDS011;64381;0.000;0.000;2023-06-10T07:13:16;3.60;;;2.30;;
75772;SDS011;64381;0.000;0.000;2023-06-10T07:15:42;4.07;;;2.30;;
75772;SDS011;64381;0.000;0.000;2023-06-10T07:18:07;3.60;;;2.00;;
75772;SDS011;64381;0.000;0.000;2023-06-10T07:20:32;3.67;;;2.13;;
75772;SDS011;64381;0.000;0.000;2023-06-10T07:22:57;3.60;;;2.00;;
75772;SDS011;64381;0.000;0.000;2023-06-10T07:25:22;3.80;;;2.13;;
75772;SDS011;64381;0.000;0.000;2023-06-10T07:27:48;3.60;;;1.93;;
75772;SDS011;64381;0.000;0.000;2023-06-10T07:30:13;3.70;;;2.10;;
75772;SDS011;64381;0.000;0.000;2023-06-10T07:32:38;3.70;;;2.20;;
75772;SDS011;64381;0.000;0.000;2023-06-10T07:35:05;3.70;;;2.03;;
75772;SDS011;64381;0.000;0.000;2023-06-10T07:37:33;3.40;;;2.05;;
75772;SDS011;64381;0.000;0.000;2023-06-10T07:39:58;3.73;;;2.20;;
75772;SDS011;64381;0.000;0.000;2023-06-10T07:42:23;3.60;;;2.00;;
75772;SDS011;64381;0.000;0.000;2023-06-10T07:44:48;3.80;;;2.30;;
75772;SDS011;64381;0.000;0.000;2023-06-10T07:47:13;3.60;;;2.10;;
75772;SDS011;64381;0.000;0.000;2023-06-10T07:49:39;3.60;;;2.07;;
75772;SDS011;64381;0.000;0.000;2023-06-10T07:52:04;3.77;;;2.10;;
75772;SDS011;64381;0.000;0.000;2023-06-10T07:54:30;3.87;;;2.33;;
75772;SDS011;64381;0.000;0.000;2023-06-10T07:56:55;3.50;;;2.10;;
75772;SDS011;64381;0.000;0.000;2023-06-10T07:59:20;3.93;;;2.13;;
75772;SDS011;64381;0.000;0.000;2023-06-10T08:01:45;3.73;;;2.07;;
75772;SDS011;64381;0.000;0.000;2023-06-10T08:04:10;3.83;;;2.00;;
75772;SDS011;64381;0.000;0.000;2023-06-10T08:06:36;3.97;;;2.30;;
75772;SDS011;64381;0.000;0.000;2023-06-10T08:09:01;3.60;;;2.20;;
75772;SDS011;64381;0.000;0.000;2023-06-10T08:11:26;3.50;;;1.90;;
75772;SDS011;64381;0.000;0.000;2023-06-10T08:13:51;3.70;;;2.10;;
75772;SDS011;64381;0.000;0.000;2023-06-10T08:16:16;3.70;;;2.03;;
75772;SDS011;64381;0.000;0.000;2023-06-10T08:18:42;3.60;;;2.03;;
75772;SDS011;64381;0.000;0.000;2023-06-10T08:21:07;3.47;;;1.93;;
75772;SDS011;64381;0.000;0.000;2023-06-10T08:23:32;4.00;;;2.10;;
75772;SDS011;64381;0.000;0.000;2023-06-10T08:25:57;3.93;;;2.17;;
75772;SDS011;64381;0.000;0.000;2023-06-10T08:28:22;3.90;;;2.20;;
75772;SDS011;64381;0.000;0.000;2023-06-10T08:30:48;3.70;;;2.20;;
75772;SDS011;64381;0.000;0.000;2023-06-10T08:33:13;3.70;;;2.00;;
75772;SDS011;64381;0.000;0.000;2023-06-10T08:35:38;3.87;;;2.20;;
75772;SDS011;64381;0.000;0.000;2023-06-10T08:38:03;3.73;;;2.23;;
75772;SDS011;64381;0.000;0.000;2023-06-10T08:40:28;3.70;;;2.00;;
75772;SDS011;64381;0.000;0.000;2023-06-10T08:43:00;3.60;;;2.10;;
75772;SDS011;64381;0.000;0.000;2023-06-10T08:45:31;3.63;;;2.13;;
75772;SDS011;64381;0.000;0.000;2023-06-10T08:47:56;3.60;;;2.10;;
75772;SDS011;64381;0.000;0.000;2023-06-10T08:50:22;3.70;;;2.10;;
75772;SDS011;64381;0.000;0.000;2023-06-10T08:52:48;3.63;;;2.00;;
75772;SDS011;64381;0.000;0.000;2023-06-10T08:55:15;3.58;;;2.00;;
75772;SDS011;64381;0.000;0.000;2023-06-10T08:57:43;3.70;;;2.20;;
75772;SDS011;64381;0.000;0.000;2023-06-10T09:00:09;3.75;;;2.30;;
75772;SDS011;64381;0.000;0.000;2023-06-10T09:02:35;3.90;;;2.30;;
75772;SDS011;64381;0.000;0.000;2023-06-10T09:05:02;3.95;;;2.20;;
75772;SDS011;64381;0.000;0.000;2023-06-10T09:07:27;3.35;;;2.15;;
75772;SDS011;64381;0.000;0.000;2023-06-10T09:09:55;3.92;;;2.42;;
75772;SDS011;64381;0.000;0.000;2023-06-10T09:12:20;3.63;;;2.23;;
75772;SDS011;64381;0.000;0.000;2023-06-10T09:14:45;3.37;;;2.13;;
75772;SDS011;64381;0.000;0.000;2023-06-10T09:17:11;3.70;;;2.20;;
75772;SDS011;64381;0.000;0.000;2023-06-10T09:19:36;4.47;;;2.30;;
75772;SDS011;64381;0.000;0.000;2023-06-10T09:22:03;4.07;;;2.30;;
75772;SDS011;64381;0.000;0.000;2023-06-10T09:24:28;3.90;;;2.40;;
75772;SDS011;64381;0.000;0.000;2023-06-10T09:27:03;3.80;;;2.00;;
75772;SDS011;64381;0.000;0.000;2023-06-10T09:29:30;3.88;;;2.28;;
75772;SDS011;64381;0.000;0.000;2023-06-10T09:31:55;4.00;;;2.33;;
75772;SDS011;64381;0.000;0.000;2023-06-10T09:34:20;4.20;;;2.20;;
75772;SDS011;64381;0.000;0.000;2023-06-10T09:36:50;3.70;;;2.10;;
75772;SDS011;64381;0.000;0.000;2023-06-10T09:39:16;3.90;;;2.20;;
75772;SDS011;64381;0.000;0.000;2023-06-10T09:41:42;3.80;;;2.10;;
75772;SDS011;64381;0.000;0.000;2023-06-10T09:44:11;3.57;;;2.20;;
75772;SDS011;64381;0.000;0.000;2023-06-10T09:46:37;3.60;;;2.00;;
75772;SDS011;64381;0.000;0.000;2023-06-10T09:49:03;3.60;;;2.10;;
75772;SDS011;64381;0.000;0.000;2023-06-10T09:51:28;3.50;;;2.00;;
75772;SDS011;64381;0.000;0.000;2023-06-10T09:53:53;3.60;;;2.10;;
75772;SDS011;64381;0.000;0.000;2023-06-10T09:56:19;3.80;;;2.20;;
75772;SDS011;64381;0.000;0.000;2023-06-10T09:58:44;4.20;;;2.40;;
75772;SDS011;64381;0.000;0.000;2023-06-10T10:01:11;3.73;;;2.20;;
75772;SDS011;64381;0.000;0.000;2023-06-10T10:03:47;3.63;;;2.00;;
75772;SDS011;64381;0.000;0.000;2023-06-10T10:06:15;3.80;;;2.20;;
75772;SDS011;64381;0.000;0.000;2023-06-10T10:08:41;3.70;;;2.15;;
75772;SDS011;64381;0.000;0.000;2023-06-10T10:11:06;3.70;;;2.00;;
75772;SDS011;64381;0.000;0.000;2023-06-10T10:13:35;3.80;;;2.33;;
75772;SDS011;64381;0.000;0.000;2023-06-10T10:16:09;3.50;;;2.05;;
75772;SDS011;64381;0.000;0.000;2023-06-10T10:18:36;3.80;;;2.10;;
75772;SDS011;64381;0.000;0.000;2023-06-10T10:21:09;3.47;;;1.90;;
75772;SDS011;64381;0.000;0.000;2023-06-10T10:23:58;3.65;;;1.92;;
75772;SDS011;64381;0.000;0.000;2023-06-10T10:26:29;3.53;;;2.20;;
75772;SDS011;64381;0.000;0.000;2023-06-10T10:28:58;3.70;;;2.00;;
75772;SDS011;64381;0.000;0.000;2023-06-10T10:31:26;4.10;;;2.35;;
75772;SDS011;64381;0.000;0.000;2023-06-10T10:34:00;4.00;;;2.13;;
75772;SDS011;64381;0.000;0.000;2023-06-10T10:36:27;3.70;;;2.10;;
75772;SDS011;64381;0.000;0.000;2023-06-10T10:38:52;3.77;;;2.40;;
75772;SDS011;64381;0.000;0.000;2023-06-10T10:41:19;3.53;;;2.03;;
75772;SDS011;64381;0.000;0.000;2023-06-10T10:43:44;3.20;;;1.90;;
75772;SDS011;64381;0.000;0.000;2023-06-10T10:46:15;3.92;;;2.03;;
75772;SDS011;64381;0.000;0.000;2023-06-10T10:48:42;3.63;;;2.03;;
75772;SDS011;64381;0.000;0.000;2023-06-10T10:51:08;3.83;;;2.10;;
75772;SDS011;64381;0.000;0.000;2023-06-10T10:53:33;3.72;;;2.13;;
75772;SDS011;64381;0.000;0.000;2023-06-10T10:55:59;3.70;;;2.20;;
75772;SDS011;64381;0.000;0.000;2023-06-10T11:01:39;3.30;;;1.77;;
75772;SDS011;64381;0.000;0.000;2023-06-10T11:04:08;3.50;;;2.00;;
75772;SDS011;64381;0.000;0.000;2023-06-10T11:06:33;3.80;;;2.10;;
75772;SDS011;64381;0.000;0.000;2023-06-10T11:08:58;3.53;;;1.90;;
75772;SDS011;64381;0.000;0.000;2023-06-10T11:11:24;3.73;;;2.03;;
75772;SDS011;64381;0.000;0.000;2023-06-10T11:16:28;3.72;;;2.00;;
75772;SDS011;64381;0.000;0.000;2023-06-10T11:18:54;3.50;;;2.00;;
75772;SDS011;64381;0.000;0.000;2023-06-10T11:21:20;3.22;;;1.98;;
75772;SDS011;64381;0.000;0.000;2023-06-10T11:23:45;3.50;;;2.00;;
75772;SDS011;64381;0.000;0.000;2023-06-10T11:29:00;3.50;;;2.10;;
75772;SDS011;64381;0.000;0.000;2023-06-10T11:31:31;3.50;;;2.00;;
75772;SDS011;64381;0.000;0.000;2023-06-10T11:34:06;3.60;;;2.00;;
75772;SDS011;64381;0.000;0.000;2023-06-10T11:36:33;4.23;;;1.90;;
75772;SDS011;64381;0.000;0.000;2023-06-10T11:39:00;3.50;;;2.00;;
75772;SDS011;64381;0.000;0.000;2023-06-10T11:41:27;3.33;;;1.85;;
75772;SDS011;64381;0.000;0.000;2023-06-10T11:43:53;3.60;;;2.10;;
75772;SDS011;64381;0.000;0.000;2023-06-10T11:46:19;3.75;;;2.08;;
75772;SDS011;64381;0.000;0.000;2023-06-10T11:48:51;3.73;;;1.93;;
75772;SDS011;64381;0.000;0.000;2023-06-10T11:51:17;3.67;;;2.20;;
75772;SDS011;64381;0.000;0.000;2023-06-10T11:53:44;3.30;;;1.90;;
75772;SDS011;64381;0.000;0.000;2023-06-10T11:56:10;3.30;;;1.90;;
75772;SDS011;64381;0.000;0.000;2023-06-10T11:58:35;2.93;;;1.70;;
75772;SDS011;64381;0.000;0.000;2023-06-10T12:01:00;3.60;;;2.10;;
75772;SDS011;64381;0.000;0.000;2023-06-10T12:03:26;3.80;;;2.07;;
75772;SDS011;64381;0.000;0.000;2023-06-10T12:05:57;3.40;;;1.73;;
75772;SDS011;64381;0.000;0.000;2023-06-10T12:08:23;3.55;;;2.08;;
75772;SDS011;64381;0.000;0.000;2023-06-10T12:10:49;3.57;;;1.90;;
75772;SDS011;64381;0.000;0.000;2023-06-10T12:13:15;3.72;;;2.00;;
75772;SDS011;64381;0.000;0.000;2023-06-10T12:15:40;3.40;;;2.03;;
75772;SDS011;64381;0.000;0.000;2023-06-10T12:18:05;3.73;;;2.10;;
75772;SDS011;64381;0.000;0.000;2023-06-10T12:20:31;3.87;;;2.20;;
75772;SDS011;64381;0.000;0.000;2023-06-10T12:22:57;3.53;;;1.92;;
75772;SDS011;64381;0.000;0.000;2023-06-10T12:25:27;3.60;;;2.10;;
75772;SDS011;64381;0.000;0.000;2023-06-10T12:27:54;3.50;;;1.93;;
75772;SDS011;64381;0.000;0.000;2023-06-10T12:30:21;3.47;;;1.85;;
75772;SDS011;64381;0.000;0.000;2023-06-10T12:32:47;3.50;;;1.90;;
75772;SDS011;64381;0.000;0.000;2023-06-10T12:35:15;3.40;;;1.80;;
75772;SDS011;64381;0.000;0.000;2023-06-10T12:40:29;3.25;;;1.88;;
75772;SDS011;64381;0.000;0.000;2023-06-10T12:42:56;3.20;;;1.95;;
75772;SDS011;64381;0.000;0.000;2023-06-10T12:45:26;3.30;;;1.80;;
75772;SDS011;64381;0.000;0.000;2023-06-10T12:48:05;3.30;;;1.80;;
75772;SDS011;64381;0.000;0.000;2023-06-10T12:50:38;3.70;;;2.00;;
75772;SDS011;64381;0.000;0.000;2023-06-10T12:53:04;3.72;;;1.95;;
75772;SDS011;64381;0.000;0.000;2023-06-10T12:55:30;3.40;;;1.90;;
75772;SDS011;64381;0.000;0.000;2023-06-10T12:57:56;4.80;;;1.93;;
75772;SDS011;64381;0.000;0.000;2023-06-10T13:00:21;8.03;;;2.30;;
75772;SDS011;64381;0.000;0.000;2023-06-10T13:02:48;11.17;;;3.23;;
75772;SDS011;64381;0.000;0.000;2023-06-10T13:05:13;17.33;;;3.10;;
75772;SDS011;64381;0.000;0.000;2023-06-10T13:07:39;9.37;;;2.30;;
75772;SDS011;64381;0.000;0.000;2023-06-10T13:10:04;13.57;;;2.80;;
75772;SDS011;64381;0.000;0.000;2023-06-10T13:12:30;9.18;;;2.40;;
75772;SDS011;64381;0.000;0.000;2023-06-10T13:14:55;12.23;;;2.60;;
75772;SDS011;64381;0.000;0.000;2023-06-10T13:17:20;7.83;;;2.53;;
75772;SDS011;64381;0.000;0.000;2023-06-10T13:19:46;10.83;;;2.47;;
75772;SDS011;64381;0.000;0.000;2023-06-10T13:22:11;7.00;;;2.33;;
75772;SDS011;64381;0.000;0.000;2023-06-10T13:24:38;9.20;;;2.40;;
75772;SDS011;64381;0.000;0.000;2023-06-10T13:27:04;8.85;;;2.20;;
75772;SDS011;64381;0.000;0.000;2023-06-10T13:29:29;7.13;;;2.47;;
75772;SDS011;64381;0.000;0.000;2023-06-10T13:31:54;8.97;;;2.87;;
75772;SDS011;64381;0.000;0.000;2023-06-10T13:34:19;6.27;;;2.30;;
75772;SDS011;64381;0.000;0.000;2023-06-10T13:36:45;6.67;;;2.40;;
75772;SDS011;64381;0.000;0.000;2023-06-10T13:39:10;7.87;;;2.37;;
75772;SDS011;64381;0.000;0.000;2023-06-10T13:41:35;9.83;;;2.70;;
75772;SDS011;64381;0.000;0.000;2023-06-10T13:44:00;6.30;;;2.30;;
75772;SDS011;64381;0.000;0.000;2023-06-10T13:46:25;7.03;;;2.40;;
75772;SDS011;64381;0.000;0.000;2023-06-10T13:48:51;7.97;;;2.33;;
75772;SDS011;64381;0.000;0.000;2023-06-10T13:51:16;7.87;;;2.20;;
75772;SDS011;64381;0.000;0.000;2023-06-10T13:53:41;8.63;;;2.47;;
75772;SDS011;64381;0.000;0.000;2023-06-10T13:56:06;6.50;;;2.33;;
75772;SDS011;64381;0.000;0.000;2023-06-10T13:58:31;8.67;;;2.40;;
75772;SDS011;64381;0.000;0.000;2023-06-10T14:00:57;6.83;;;2.50;;
75772;SDS011;64381;0.000;0.000;2023-06-10T14:03:22;6.00;;;2.30;;
75772;SDS011;64381;0.000;0.000;2023-06-10T14:05:47;5.60;;;2.40;;
75772;SDS011;64381;0.000;0.000;2023-06-10T14:08:12;8.10;;;2.50;;
75772;SDS011;64381;0.000;0.000;2023-06-10T14:10:37;5.20;;;2.20;;
75772;SDS011;64381;0.000;0.000;2023-06-10T14:13:03;7.97;;;2.73;;
75772;SDS011;64381;0.000;0.000;2023-06-10T14:15:28;7.03;;;2.30;;
75772;SDS011;64381;0.000;0.000;2023-06-10T14:17:53;7.30;;;2.67;;
75772;SDS011;64381;0.000;0.000;2023-06-10T14:20:18;5.33;;;2.63;;
75772;SDS011;64381;0.000;0.000;2023-06-10T14:22:43;6.97;;;2.50;;
75772;SDS011;64381;0.000;0.000;2023-06-10T14:25:09;5.73;;;2.30;;
75772;SDS011;64381;0.000;0.000;2023-06-10T14:27:34;5.87;;;2.30;;
75772;SDS011;64381;0.000;0.000;2023-06-10T14:29:59;8.83;;;2.87;;
75772;SDS011;64381;0.000;0.000;2023-06-10T14:32:25;5.20;;;2.57;;
75772;SDS011;64381;0.000;0.000;2023-06-10T14:34:50;7.20;;;2.50;;
75772;SDS011;64381;0.000;0.000;2023-06-10T14:37:15;4.70;;;2.30;;
75772;SDS011;64381;0.000;0.000;2023-06-10T14:39:40;6.53;;;2.40;;
75772;SDS011;64381;0.000;0.000;2023-06-10T14:42:05;6.27;;;2.43;;
75772;SDS011;64381;0.000;0.000;2023-06-10T14:44:31;5.82;;;2.50;;
75772;SDS011;64381;0.000;0.000;2023-06-10T14:46:56;5.90;;;2.50;;
75772;SDS011;64381;0.000;0.000;2023-06-10T14:49:22;5.50;;;2.47;;
75772;SDS011;64381;0.000;0.000;2023-06-10T14:51:47;6.27;;;2.47;;
75772;SDS011;64381;0.000;0.000;2023-06-10T14:54:12;5.23;;;2.60;;
75772;SDS011;64381;0.000;0.000;2023-06-10T14:56:37;7.00;;;2.80;;
75772;SDS011;64381;0.000;0.000;2023-06-10T14:59:02;4.60;;;2.30;;
75772;SDS011;64381;0.000;0.000;2023-06-10T15:01:28;9.33;;;3.67;;
75772;SDS011;64381;0.000;0.000;2023-06-10T15:03:53;10.73;;;4.50;;
75772;SDS011;64381;0.000;0.000;2023-06-10T15:06:18;11.47;;;5.27;;